sensor_id;sensor_type;location;lat;lon;timestamp;pressure;altitude;pressure_sealevel;temperature;humidity
59419;BME280;45224;50.904;6.038;2023-03-03T00:00:04;100416.25;;;1.48;87.01
59419;BME280;45224;50.904;6.038;2023-03-03T00:01:42;100411.97;;;1.47;87.22
59419;BME280;45224;50.904;6.038;2023-03-03T00:03:21;100419.63;;;1.47;87.16
59419;BME280;45224;50.904;6.038;2023-03-03T00:04:52;100420.56;;;1.49;87.30
59419;BME280;45224;50.904;6.038;2023-03-03T00:06:23;100408.09;;;1.55;86.86
59419;BME280;45224;50.904;6.038;2023-03-03T00:07:54;100417.25;;;1.70;85.47
59419;BME280;45224;50.904;6.038;2023-03-03T00:09:24;100419.91;;;1.73;85.22
59419;BME280;45224;50.904;6.038;2023-03-03T00:10:55;100417.25;;;1.70;85.65
59419;BME280;45224;50.904;6.038;2023-03-03T00:12:28;100420.19;;;1.41;86.96
59419;BME280;45224;50.904;6.038;2023-03-03T00:13:59;100432.13;;;1.60;86.34
59419;BME280;45224;50.904;6.038;2023-03-03T00:15:30;100423.09;;;1.49;86.92
59419;BME280;45224;50.904;6.038;2023-03-03T00:17:11;100432.28;;;1.45;87.15
59419;BME280;45224;50.904;6.038;2023-03-03T00:18:46;100426.66;;;1.53;86.83
59419;BME280;45224;50.904;6.038;2023-03-03T00:20:38;100424.69;;;1.29;88.04
59419;BME280;45224;50.904;6.038;2023-03-03T00:22:21;100427.16;;;1.27;87.98
59419;BME280;45224;50.904;6.038;2023-03-03T00:24:20;100426.97;;;1.23;88.52
59419;BME280;45224;50.904;6.038;2023-03-03T00:25:52;100423.75;;;1.09;90.21
59419;BME280;45224;50.904;6.038;2023-03-03T00:27:33;100426.91;;;1.21;89.43
59419;BME280;45224;50.904;6.038;2023-03-03T00:31:00;100427.75;;;1.40;87.73
59419;BME280;45224;50.904;6.038;2023-03-03T00:32:41;100428.06;;;1.46;87.10
59419;BME280;45224;50.904;6.038;2023-03-03T00:35:46;100429.00;;;1.48;86.08
59419;BME280;45224;50.904;6.038;2023-03-03T00:37:24;100432.28;;;1.45;86.52
59419;BME280;45224;50.904;6.038;2023-03-03T00:40:50;100429.53;;;1.41;86.75
59419;BME280;45224;50.904;6.038;2023-03-03T00:42:21;100427.91;;;1.43;86.80
59419;BME280;45224;50.904;6.038;2023-03-03T00:43:53;100430.22;;;1.38;87.40
59419;BME280;45224;50.904;6.038;2023-03-03T00:47:24;100428.69;;;1.42;86.89
59419;BME280;45224;50.904;6.038;2023-03-03T00:48:57;100425.66;;;1.49;86.06
59419;BME280;45224;50.904;6.038;2023-03-03T00:50:31;100435.09;;;1.52;85.45
59419;BME280;45224;50.904;6.038;2023-03-03T00:52:05;100431.38;;;1.45;85.32
59419;BME280;45224;50.904;6.038;2023-03-03T00:53:39;100430.47;;;1.43;85.76
59419;BME280;45224;50.904;6.038;2023-03-03T00:55:10;100432.84;;;1.40;85.50
59419;BME280;45224;50.904;6.038;2023-03-03T00:56:41;100436.34;;;1.42;84.56
59419;BME280;45224;50.904;6.038;2023-03-03T00:58:13;100442.19;;;1.39;85.58
59419;BME280;45224;50.904;6.038;2023-03-03T00:59:47;100440.50;;;1.40;85.13
59419;BME280;45224;50.904;6.038;2023-03-03T01:01:18;100438.69;;;1.37;85.26
59419;BME280;45224;50.904;6.038;2023-03-03T01:02:52;100449.00;;;1.40;84.80
59419;BME280;45224;50.904;6.038;2023-03-03T01:04:22;100448.28;;;1.43;84.73
59419;BME280;45224;50.904;6.038;2023-03-03T01:05:53;100448.00;;;1.37;85.19
59419;BME280;45224;50.904;6.038;2023-03-03T01:07:24;100455.72;;;1.20;86.50
59419;BME280;45224;50.904;6.038;2023-03-03T01:08:54;100454.09;;;1.22;86.11
59419;BME280;45224;50.904;6.038;2023-03-03T01:10:27;100455.13;;;1.26;85.74
59419;BME280;45224;50.904;6.038;2023-03-03T01:11:59;100451.84;;;1.28;85.93
59419;BME280;45224;50.904;6.038;2023-03-03T01:13:32;100453.94;;;1.19;87.02
59419;BME280;45224;50.904;6.038;2023-03-03T01:15:06;100451.25;;;1.16;87.24
59419;BME280;45224;50.904;6.038;2023-03-03T01:16:37;100446.53;;;1.06;87.37
59419;BME280;45224;50.904;6.038;2023-03-03T01:18:09;100444.41;;;0.97;88.75
59419;BME280;45224;50.904;6.038;2023-03-03T01:19:40;100451.78;;;0.58;91.22
59419;BME280;45224;50.904;6.038;2023-03-03T01:21:12;100452.38;;;0.52;92.94
59419;BME280;45224;50.904;6.038;2023-03-03T01:22:43;100448.06;;;0.35;94.52
59419;BME280;45224;50.904;6.038;2023-03-03T01:24:14;100454.44;;;0.10;96.83
59419;BME280;45224;50.904;6.038;2023-03-03T01:25:44;100444.09;;;0.07;97.28
59419;BME280;45224;50.904;6.038;2023-03-03T01:27:15;100454.13;;;0.04;98.33
59419;BME280;45224;50.904;6.038;2023-03-03T01:28:45;100452.00;;;-0.20;99.65
59419;BME280;45224;50.904;6.038;2023-03-03T01:30:16;100446.84;;;-0.21;100.00
59419;BME280;45224;50.904;6.038;2023-03-03T01:31:46;100453.41;;;0.07;100.00
59419;BME280;45224;50.904;6.038;2023-03-03T01:33:17;100453.94;;;-0.15;100.00
59419;BME280;45224;50.904;6.038;2023-03-03T01:34:48;100455.16;;;-0.40;100.00
59419;BME280;45224;50.904;6.038;2023-03-03T01:36:23;100454.84;;;-0.61;100.00
59419;BME280;45224;50.904;6.038;2023-03-03T01:37:55;100457.47;;;-0.60;100.00
59419;BME280;45224;50.904;6.038;2023-03-03T01:39:25;100449.34;;;-0.69;100.00
59419;BME280;45224;50.904;6.038;2023-03-03T01:40:58;100456.50;;;-0.62;100.00
59419;BME280;45224;50.904;6.038;2023-03-03T01:42:29;100456.31;;;-0.50;100.00
59419;BME280;45224;50.904;6.038;2023-03-03T01:44:00;100456.09;;;-0.38;100.00
59419;BME280;45224;50.904;6.038;2023-03-03T01:47:30;100461.41;;;-0.65;100.00
59419;BME280;45224;50.904;6.038;2023-03-03T01:49:06;100468.78;;;-0.84;100.00
59419;BME280;45224;50.904;6.038;2023-03-03T01:50:50;100475.69;;;-0.82;100.00
59419;BME280;45224;50.904;6.038;2023-03-03T01:52:28;100471.78;;;-0.92;100.00
59419;BME280;45224;50.904;6.038;2023-03-03T01:54:04;100462.47;;;-0.76;100.00
59419;BME280;45224;50.904;6.038;2023-03-03T01:55:38;100472.38;;;-0.96;100.00
59419;BME280;45224;50.904;6.038;2023-03-03T01:57:15;100475.97;;;-0.92;100.00
59419;BME280;45224;50.904;6.038;2023-03-03T01:59:10;100477.19;;;-0.85;100.00
59419;BME280;45224;50.904;6.038;2023-03-03T02:00:46;100468.97;;;-1.11;100.00
59419;BME280;45224;50.904;6.038;2023-03-03T02:02:19;100472.09;;;-1.15;100.00
59419;BME280;45224;50.904;6.038;2023-03-03T02:03:51;100473.97;;;-1.13;100.00
59419;BME280;45224;50.904;6.038;2023-03-03T02:05:22;100474.19;;;-1.23;100.00
59419;BME280;45224;50.904;6.038;2023-03-03T02:06:58;100474.81;;;-1.27;100.00
59419;BME280;45224;50.904;6.038;2023-03-03T02:08:39;100472.72;;;-1.19;100.00
59419;BME280;45224;50.904;6.038;2023-03-03T02:10:16;100475.94;;;-1.22;100.00
59419;BME280;45224;50.904;6.038;2023-03-03T02:11:50;100472.00;;;-1.17;100.00
59419;BME280;45224;50.904;6.038;2023-03-03T02:13:22;100469.81;;;-1.25;100.00
59419;BME280;45224;50.904;6.038;2023-03-03T02:14:52;100465.81;;;-1.22;100.00
59419;BME280;45224;50.904;6.038;2023-03-03T02:16:23;100471.22;;;-1.31;100.00
59419;BME280;45224;50.904;6.038;2023-03-03T02:17:59;100475.09;;;-1.22;100.00
59419;BME280;45224;50.904;6.038;2023-03-03T02:19:37;100470.69;;;-1.10;100.00
59419;BME280;45224;50.904;6.038;2023-03-03T02:23:28;100469.31;;;-1.05;100.00
59419;BME280;45224;50.904;6.038;2023-03-03T02:25:03;100478.50;;;-1.07;100.00
59419;BME280;45224;50.904;6.038;2023-03-03T02:26:38;100488.69;;;-0.92;100.00
59419;BME280;45224;50.904;6.038;2023-03-03T02:28:11;100487.69;;;-1.09;100.00
59419;BME280;45224;50.904;6.038;2023-03-03T02:29:42;100483.16;;;-1.00;100.00
59419;BME280;45224;50.904;6.038;2023-03-03T02:31:16;100480.88;;;-0.80;100.00
59419;BME280;45224;50.904;6.038;2023-03-03T02:32:47;100486.31;;;-0.74;100.00
59419;BME280;45224;50.904;6.038;2023-03-03T02:34:18;100479.47;;;-0.90;100.00
59419;BME280;45224;50.904;6.038;2023-03-03T02:35:50;100481.75;;;-0.95;100.00
59419;BME280;45224;50.904;6.038;2023-03-03T02:37:20;100486.03;;;-0.94;100.00
59419;BME280;45224;50.904;6.038;2023-03-03T02:40:46;100468.69;;;-1.01;100.00
59419;BME280;45224;50.904;6.038;2023-03-03T02:42:25;100479.72;;;-1.15;100.00
59419;BME280;45224;50.904;6.038;2023-03-03T02:44:08;100481.03;;;-1.07;100.00
59419;BME280;45224;50.904;6.038;2023-03-03T02:45:43;100475.59;;;-1.13;100.00
59419;BME280;45224;50.904;6.038;2023-03-03T02:47:14;100482.34;;;-0.99;100.00
59419;BME280;45224;50.904;6.038;2023-03-03T02:48:45;100480.84;;;-1.10;100.00
59419;BME280;45224;50.904;6.038;2023-03-03T02:50:16;100486.72;;;-0.81;100.00
59419;BME280;45224;50.904;6.038;2023-03-03T02:51:47;100484.88;;;-0.69;100.00
59419;BME280;45224;50.904;6.038;2023-03-03T02:53:17;100494.88;;;-0.87;100.00
59419;BME280;45224;50.904;6.038;2023-03-03T02:54:48;100490.59;;;-1.03;100.00
59419;BME280;45224;50.904;6.038;2023-03-03T02:56:18;100489.81;;;-0.87;100.00
59419;BME280;45224;50.904;6.038;2023-03-03T02:57:49;100492.31;;;-1.02;100.00
59419;BME280;45224;50.904;6.038;2023-03-03T02:59:19;100489.78;;;-0.72;100.00
59419;BME280;45224;50.904;6.038;2023-03-03T03:00:52;100494.72;;;-0.90;100.00
59419;BME280;45224;50.904;6.038;2023-03-03T03:02:26;100498.13;;;-1.04;100.00
59419;BME280;45224;50.904;6.038;2023-03-03T03:03:58;100490.75;;;-1.00;100.00
59419;BME280;45224;50.904;6.038;2023-03-03T03:05:29;100487.78;;;-0.93;100.00
59419;BME280;45224;50.904;6.038;2023-03-03T03:07:00;100491.97;;;-0.78;100.00
59419;BME280;45224;50.904;6.038;2023-03-03T03:08:33;100489.19;;;-0.98;100.00
59419;BME280;45224;50.904;6.038;2023-03-03T03:10:04;100498.03;;;-1.06;100.00
59419;BME280;45224;50.904;6.038;2023-03-03T03:11:38;100495.75;;;-0.86;100.00
59419;BME280;45224;50.904;6.038;2023-03-03T03:13:09;100500.81;;;-0.71;100.00
59419;BME280;45224;50.904;6.038;2023-03-03T03:14:41;100495.06;;;-0.69;100.00
59419;BME280;45224;50.904;6.038;2023-03-03T03:16:12;100502.91;;;-0.79;100.00
59419;BME280;45224;50.904;6.038;2023-03-03T03:17:43;100499.44;;;-0.96;100.00
59419;BME280;45224;50.904;6.038;2023-03-03T03:19:14;100502.31;;;-1.05;100.00
59419;BME280;45224;50.904;6.038;2023-03-03T03:20:45;100500.13;;;-0.99;100.00
59419;BME280;45224;50.904;6.038;2023-03-03T03:22:17;100501.34;;;-1.07;100.00
59419;BME280;45224;50.904;6.038;2023-03-03T03:23:49;100499.06;;;-0.87;100.00
59419;BME280;45224;50.904;6.038;2023-03-03T03:25:20;100503.47;;;-1.00;100.00
59419;BME280;45224;50.904;6.038;2023-03-03T03:26:51;100488.66;;;-1.07;100.00
59419;BME280;45224;50.904;6.038;2023-03-03T03:28:22;100500.81;;;-1.16;100.00
59419;BME280;45224;50.904;6.038;2023-03-03T03:29:52;100497.34;;;-1.03;100.00
59419;BME280;45224;50.904;6.038;2023-03-03T03:31:24;100501.00;;;-0.98;100.00
59419;BME280;45224;50.904;6.038;2023-03-03T03:32:54;100504.88;;;-1.05;100.00
59419;BME280;45224;50.904;6.038;2023-03-03T03:34:25;100502.41;;;-1.03;100.00
59419;BME280;45224;50.904;6.038;2023-03-03T03:35:58;100497.56;;;-0.99;100.00
59419;BME280;45224;50.904;6.038;2023-03-03T03:37:29;100498.97;;;-1.04;100.00
59419;BME280;45224;50.904;6.038;2023-03-03T03:39:00;100491.44;;;-1.17;100.00
59419;BME280;45224;50.904;6.038;2023-03-03T03:40:32;100498.88;;;-1.20;100.00
59419;BME280;45224;50.904;6.038;2023-03-03T03:42:03;100499.34;;;-1.13;100.00
59419;BME280;45224;50.904;6.038;2023-03-03T03:43:34;100496.53;;;-1.17;100.00
59419;BME280;45224;50.904;6.038;2023-03-03T03:45:06;100498.97;;;-1.04;100.00
59419;BME280;45224;50.904;6.038;2023-03-03T03:46:37;100507.72;;;-0.99;100.00
59419;BME280;45224;50.904;6.038;2023-03-03T03:48:07;100508.63;;;-0.83;100.00
59419;BME280;45224;50.904;6.038;2023-03-03T03:49:38;100506.78;;;-0.86;100.00
59419;BME280;45224;50.904;6.038;2023-03-03T03:51:11;100504.41;;;-0.98;100.00
59419;BME280;45224;50.904;6.038;2023-03-03T03:52:42;100500.47;;;-0.78;100.00
59419;BME280;45224;50.904;6.038;2023-03-03T03:54:13;100505.22;;;-0.69;100.00
59419;BME280;45224;50.904;6.038;2023-03-03T03:55:45;100516.16;;;-1.00;100.00
59419;BME280;45224;50.904;6.038;2023-03-03T03:57:17;100504.41;;;-0.98;100.00
59419;BME280;45224;50.904;6.038;2023-03-03T03:58:48;100506.22;;;-1.10;100.00
59419;BME280;45224;50.904;6.038;2023-03-03T04:00:19;100505.91;;;-1.01;100.00
59419;BME280;45224;50.904;6.038;2023-03-03T04:01:56;100501.97;;;-0.81;100.00
59419;BME280;45224;50.904;6.038;2023-03-03T04:03:28;100509.56;;;-0.81;100.00
59419;BME280;45224;50.904;6.038;2023-03-03T04:04:59;100512.75;;;-0.85;100.00
59419;BME280;45224;50.904;6.038;2023-03-03T04:06:30;100508.91;;;-0.94;100.00
59419;BME280;45224;50.904;6.038;2023-03-03T04:08:01;100512.69;;;-1.15;100.00
59419;BME280;45224;50.904;6.038;2023-03-03T04:09:31;100508.00;;;-1.09;100.00
59419;BME280;45224;50.904;6.038;2023-03-03T04:11:03;100511.84;;;-1.01;100.00
59419;BME280;45224;50.904;6.038;2023-03-03T04:12:33;100505.91;;;-1.01;100.00
59419;BME280;45224;50.904;6.038;2023-03-03T04:14:08;100508.84;;;-1.08;100.00
59419;BME280;45224;50.904;6.038;2023-03-03T04:15:40;100518.00;;;-0.82;100.00
59419;BME280;45224;50.904;6.038;2023-03-03T04:17:17;100510.97;;;-0.71;100.00
59419;BME280;45224;50.904;6.038;2023-03-03T04:18:48;100505.56;;;-0.63;100.00
59419;BME280;45224;50.904;6.038;2023-03-03T04:20:20;100503.28;;;-0.58;100.00
59419;BME280;45224;50.904;6.038;2023-03-03T04:21:51;100506.88;;;-0.54;100.00
59419;BME280;45224;50.904;6.038;2023-03-03T04:23:22;100515.38;;;-0.69;100.00
59419;BME280;45224;50.904;6.038;2023-03-03T04:24:53;100517.28;;;-0.65;100.00
59419;BME280;45224;50.904;6.038;2023-03-03T04:26:23;100515.53;;;-0.66;100.00
59419;BME280;45224;50.904;6.038;2023-03-03T04:27:54;100523.06;;;-0.67;100.00
59419;BME280;45224;50.904;6.038;2023-03-03T04:29:26;100522.81;;;-0.72;100.00
59419;BME280;45224;50.904;6.038;2023-03-03T04:30:57;100520.44;;;-0.69;100.00
59419;BME280;45224;50.904;6.038;2023-03-03T04:32:28;100519.31;;;-0.74;100.00
59419;BME280;45224;50.904;6.038;2023-03-03T04:33:59;100511.03;;;-0.55;100.00
59419;BME280;45224;50.904;6.038;2023-03-03T04:35:31;100511.81;;;-0.41;100.00
59419;BME280;45224;50.904;6.038;2023-03-03T04:37:01;100521.13;;;-0.42;100.00
59419;BME280;45224;50.904;6.038;2023-03-03T04:38:32;100515.66;;;-0.33;100.00
59419;BME280;45224;50.904;6.038;2023-03-03T04:40:05;100519.81;;;-0.50;100.00
59419;BME280;45224;50.904;6.038;2023-03-03T04:41:36;100520.44;;;-0.54;100.00
59419;BME280;45224;50.904;6.038;2023-03-03T04:43:09;100519.53;;;-0.40;100.00
59419;BME280;45224;50.904;6.038;2023-03-03T04:44:40;100522.09;;;-0.54;100.00
59419;BME280;45224;50.904;6.038;2023-03-03T04:46:11;100518.25;;;-0.63;100.00
59419;BME280;45224;50.904;6.038;2023-03-03T04:47:42;100518.34;;;-0.61;100.00
59419;BME280;45224;50.904;6.038;2023-03-03T04:49:13;100519.22;;;-0.61;100.00
59419;BME280;45224;50.904;6.038;2023-03-03T04:50:45;100525.69;;;-0.66;100.00
59419;BME280;45224;50.904;6.038;2023-03-03T04:52:15;100523.75;;;-0.70;100.00
59419;BME280;45224;50.904;6.038;2023-03-03T04:53:46;100520.44;;;-0.69;100.00
59419;BME280;45224;50.904;6.038;2023-03-03T04:55:17;100524.66;;;-0.69;100.00
59419;BME280;45224;50.904;6.038;2023-03-03T04:56:50;100520.88;;;-0.76;100.00
59419;BME280;45224;50.904;6.038;2023-03-03T04:58:21;100528.84;;;-0.70;100.00
59419;BME280;45224;50.904;6.038;2023-03-03T04:59:53;100530.78;;;-0.66;100.00
59419;BME280;45224;50.904;6.038;2023-03-03T05:01:24;100526.91;;;-0.59;100.00
59419;BME280;45224;50.904;6.038;2023-03-03T05:02:54;100529.38;;;-0.61;100.00
59419;BME280;45224;50.904;6.038;2023-03-03T05:04:25;100531.97;;;-0.44;100.00
59419;BME280;45224;50.904;6.038;2023-03-03T05:05:55;100538.31;;;-0.67;100.00
59419;BME280;45224;50.904;6.038;2023-03-03T05:07:26;100530.59;;;-0.69;100.00
59419;BME280;45224;50.904;6.038;2023-03-03T05:08:56;100532.94;;;-0.57;100.00
59419;BME280;45224;50.904;6.038;2023-03-03T05:10:27;100531.44;;;-0.53;100.00
59419;BME280;45224;50.904;6.038;2023-03-03T05:11:57;100543.72;;;-0.46;100.00
59419;BME280;45224;50.904;6.038;2023-03-03T05:13:28;100542.31;;;-0.41;100.00
59419;BME280;45224;50.904;6.038;2023-03-03T05:14:59;100551.59;;;-0.27;100.00
59419;BME280;45224;50.904;6.038;2023-03-03T05:16:29;100541.34;;;-0.28;100.00
59419;BME280;45224;50.904;6.038;2023-03-03T05:18:00;100548.47;;;-0.52;100.00
59419;BME280;45224;50.904;6.038;2023-03-03T05:19:30;100544.94;;;-0.40;100.00
59419;BME280;45224;50.904;6.038;2023-03-03T05:21:01;100551.25;;;-0.33;100.00
59419;BME280;45224;50.904;6.038;2023-03-03T05:22:31;100548.81;;;-0.46;100.00
59419;BME280;45224;50.904;6.038;2023-03-03T05:24:02;100539.16;;;-0.37;100.00
59419;BME280;45224;50.904;6.038;2023-03-03T05:25:33;100541.25;;;-0.30;100.00
59419;BME280;45224;50.904;6.038;2023-03-03T05:27:03;100544.91;;;-0.25;100.00
59419;BME280;45224;50.904;6.038;2023-03-03T05:28:34;100547.91;;;-0.32;100.00
59419;BME280;45224;50.904;6.038;2023-03-03T05:30:05;100550.34;;;-0.19;100.00
59419;BME280;45224;50.904;6.038;2023-03-03T05:31:36;100542.84;;;-0.32;100.00
59419;BME280;45224;50.904;6.038;2023-03-03T05:33:07;100540.88;;;-0.21;100.00
59419;BME280;45224;50.904;6.038;2023-03-03T05:34:37;100548.47;;;-0.67;100.00
59419;BME280;45224;50.904;6.038;2023-03-03T05:36:08;100546.50;;;-0.57;100.00
59419;BME280;45224;50.904;6.038;2023-03-03T05:37:39;100547.56;;;-0.38;100.00
59419;BME280;45224;50.904;6.038;2023-03-03T05:39:14;100552.94;;;-0.48;100.00
59419;BME280;45224;50.904;6.038;2023-03-03T05:40:45;100552.41;;;-0.58;100.00
59419;BME280;45224;50.904;6.038;2023-03-03T05:42:16;100554.75;;;-0.46;100.00
59419;BME280;45224;50.904;6.038;2023-03-03T05:43:46;100546.44;;;-0.43;100.00
59419;BME280;45224;50.904;6.038;2023-03-03T05:45:17;100540.28;;;-0.32;100.00
59419;BME280;45224;50.904;6.038;2023-03-03T05:46:51;100540.78;;;-0.23;100.00
59419;BME280;45224;50.904;6.038;2023-03-03T05:48:21;100531.59;;;-0.21;100.00
59419;BME280;45224;50.904;6.038;2023-03-03T05:49:52;100543.50;;;-0.20;100.00
59419;BME280;45224;50.904;6.038;2023-03-03T05:51:22;100551.03;;;-0.21;100.00
59419;BME280;45224;50.904;6.038;2023-03-03T05:52:53;100551.03;;;-0.06;100.00
59419;BME280;45224;50.904;6.038;2023-03-03T05:54:23;100554.34;;;-0.07;100.00
59419;BME280;45224;50.904;6.038;2023-03-03T05:55:54;100550.78;;;-0.11;100.00
59419;BME280;45224;50.904;6.038;2023-03-03T05:57:24;100551.03;;;-0.06;100.00
59419;BME280;45224;50.904;6.038;2023-03-03T05:58:55;100549.59;;;-0.01;100.00
59419;BME280;45224;50.904;6.038;2023-03-03T06:00:26;100552.03;;;0.12;100.00
59419;BME280;45224;50.904;6.038;2023-03-03T06:01:56;100549.81;;;0.18;100.00
59419;BME280;45224;50.904;6.038;2023-03-03T06:03:27;100539.22;;;0.11;100.00
59419;BME280;45224;50.904;6.038;2023-03-03T06:04:58;100547.00;;;0.14;100.00
59419;BME280;45224;50.904;6.038;2023-03-03T06:06:28;100540.25;;;0.14;100.00
59419;BME280;45224;50.904;6.038;2023-03-03T06:07:59;100548.34;;;0.07;100.00
59419;BME280;45224;50.904;6.038;2023-03-03T06:09:31;100554.88;;;0.02;100.00
59419;BME280;45224;50.904;6.038;2023-03-03T06:11:01;100562.13;;;-0.35;100.00
59419;BME280;45224;50.904;6.038;2023-03-03T06:12:33;100568.69;;;-0.39;100.00
59419;BME280;45224;50.904;6.038;2023-03-03T06:14:03;100569.66;;;-0.37;100.00
59419;BME280;45224;50.904;6.038;2023-03-03T06:15:34;100576.66;;;-0.33;100.00
59419;BME280;45224;50.904;6.038;2023-03-03T06:17:04;100566.84;;;-0.42;100.00
59419;BME280;45224;50.904;6.038;2023-03-03T06:18:35;100561.66;;;-0.28;100.00
59419;BME280;45224;50.904;6.038;2023-03-03T06:20:07;100561.94;;;-0.24;100.00
59419;BME280;45224;50.904;6.038;2023-03-03T06:21:37;100567.41;;;-0.01;100.00
59419;BME280;45224;50.904;6.038;2023-03-03T06:23:09;100563.78;;;0.10;100.00
59419;BME280;45224;50.904;6.038;2023-03-03T06:24:42;100557.97;;;0.13;100.00
59419;BME280;45224;50.904;6.038;2023-03-03T06:26:13;100566.25;;;0.09;100.00
59419;BME280;45224;50.904;6.038;2023-03-03T06:27:43;100559.03;;;0.16;100.00
59419;BME280;45224;50.904;6.038;2023-03-03T06:29:14;100553.09;;;0.01;100.00
59419;BME280;45224;50.904;6.038;2023-03-03T06:30:44;100560.47;;;-0.04;100.00
59419;BME280;45224;50.904;6.038;2023-03-03T06:32:15;100563.44;;;0.04;100.00
59419;BME280;45224;50.904;6.038;2023-03-03T06:33:45;100567.09;;;0.09;100.00
59419;BME280;45224;50.904;6.038;2023-03-03T06:35:16;100563.28;;;0.01;100.00
59419;BME280;45224;50.904;6.038;2023-03-03T06:36:47;100567.84;;;0.07;100.00
59419;BME280;45224;50.904;6.038;2023-03-03T06:38:18;100570.47;;;0.08;100.00
59419;BME280;45224;50.904;6.038;2023-03-03T06:39:48;100563.22;;;0.16;100.00
59419;BME280;45224;50.904;6.038;2023-03-03T06:41:21;100574.56;;;0.06;100.00
59419;BME280;45224;50.904;6.038;2023-03-03T06:42:52;100576.09;;;-0.12;100.00
59419;BME280;45224;50.904;6.038;2023-03-03T06:44:22;100578.31;;;-0.19;100.00
59419;BME280;45224;50.904;6.038;2023-03-03T06:45:53;100580.31;;;-0.28;100.00
59419;BME280;45224;50.904;6.038;2023-03-03T06:47:23;100591.53;;;-0.39;100.00
59419;BME280;45224;50.904;6.038;2023-03-03T06:48:54;100574.38;;;-0.28;100.00
59419;BME280;45224;50.904;6.038;2023-03-03T06:50:25;100580.59;;;-0.38;100.00
59419;BME280;45224;50.904;6.038;2023-03-03T06:51:58;100578.06;;;-0.38;100.00
59419;BME280;45224;50.904;6.038;2023-03-03T06:53:31;100586.22;;;-0.29;100.00
59419;BME280;45224;50.904;6.038;2023-03-03T06:55:09;100596.63;;;-0.39;100.00
59419;BME280;45224;50.904;6.038;2023-03-03T06:56:41;100593.66;;;-0.47;100.00
59419;BME280;45224;50.904;6.038;2023-03-03T06:58:14;100591.03;;;-0.48;100.00
59419;BME280;45224;50.904;6.038;2023-03-03T06:59:48;100594.78;;;-0.57;100.00
59419;BME280;45224;50.904;6.038;2023-03-03T07:01:21;100601.34;;;-0.45;100.00
59419;BME280;45224;50.904;6.038;2023-03-03T07:03:07;100603.28;;;-0.41;100.00
59419;BME280;45224;50.904;6.038;2023-03-03T07:04:38;100605.03;;;-0.55;100.00
59419;BME280;45224;50.904;6.038;2023-03-03T07:06:21;100610.31;;;-0.37;100.00
59419;BME280;45224;50.904;6.038;2023-03-03T07:07:52;100613.28;;;-0.59;100.00
59419;BME280;45224;50.904;6.038;2023-03-03T07:09:26;100603.63;;;-0.65;100.00
59419;BME280;45224;50.904;6.038;2023-03-03T07:11:06;100612.75;;;-0.53;100.00
59419;BME280;45224;50.904;6.038;2023-03-03T07:12:37;100619.75;;;-0.49;100.00
59419;BME280;45224;50.904;6.038;2023-03-03T07:14:14;100614.94;;;-0.60;100.00
59419;BME280;45224;50.904;6.038;2023-03-03T07:15:46;100617.31;;;-0.33;100.00
59419;BME280;45224;50.904;6.038;2023-03-03T07:17:19;100622.41;;;-0.63;100.00
59419;BME280;45224;50.904;6.038;2023-03-03T07:18:55;100639.06;;;-0.81;100.00
59419;BME280;45224;50.904;6.038;2023-03-03T07:20:40;100632.72;;;-0.60;100.00
59419;BME280;45224;50.904;6.038;2023-03-03T07:22:16;100626.38;;;-0.66;100.00
59419;BME280;45224;50.904;6.038;2023-03-03T07:23:49;100627.44;;;-0.78;100.00
59419;BME280;45224;50.904;6.038;2023-03-03T07:25:33;100631.75;;;-0.62;100.00
59419;BME280;45224;50.904;6.038;2023-03-03T07:28:35;100638.16;;;-0.53;100.00
59419;BME280;45224;50.904;6.038;2023-03-03T07:30:21;100636.03;;;-0.61;100.00
59419;BME280;45224;50.904;6.038;2023-03-03T07:31:55;100637.34;;;-0.67;100.00
59419;BME280;45224;50.904;6.038;2023-03-03T07:33:42;100641.78;;;-0.78;100.00
59419;BME280;45224;50.904;6.038;2023-03-03T07:37:12;100646.31;;;-0.87;100.00
59419;BME280;45224;50.904;6.038;2023-03-03T07:38:52;100654.19;;;-0.98;100.00
59419;BME280;45224;50.904;6.038;2023-03-03T07:44:34;100655.56;;;-1.03;100.00
59419;BME280;45224;50.904;6.038;2023-03-03T07:47:39;100659.63;;;-0.92;100.00
59419;BME280;45224;50.904;6.038;2023-03-03T07:50:51;100660.03;;;-0.70;100.00
59419;BME280;45224;50.904;6.038;2023-03-03T07:52:39;100665.59;;;-0.76;100.00
59419;BME280;45224;50.904;6.038;2023-03-03T07:54:29;100667.22;;;-0.63;100.00
59419;BME280;45224;50.904;6.038;2023-03-03T07:57:50;100662.09;;;-0.78;100.00
59419;BME280;45224;50.904;6.038;2023-03-03T07:59:24;100665.09;;;-0.85;100.00
59419;BME280;45224;50.904;6.038;2023-03-03T08:01:28;100674.41;;;-0.71;100.00
59419;BME280;45224;50.904;6.038;2023-03-03T08:03:12;100682.59;;;-0.75;100.00
59419;BME280;45224;50.904;6.038;2023-03-03T08:04:47;100680.19;;;-0.59;100.00
59419;BME280;45224;50.904;6.038;2023-03-03T08:11:13;100676.50;;;-0.64;100.00
59419;BME280;45224;50.904;6.038;2023-03-03T08:12:43;100678.69;;;-0.70;100.00
59419;BME280;45224;50.904;6.038;2023-03-03T08:14:21;100683.13;;;-0.81;100.00
59419;BME280;45224;50.904;6.038;2023-03-03T08:17:39;100686.28;;;-0.42;100.00
59419;BME280;45224;50.904;6.038;2023-03-03T08:19:12;100686.47;;;-0.24;100.00
59419;BME280;45224;50.904;6.038;2023-03-03T08:20:48;100687.88;;;-0.29;100.00
59419;BME280;45224;50.904;6.038;2023-03-03T08:22:33;100691.91;;;-0.03;100.00
59419;BME280;45224;50.904;6.038;2023-03-03T08:24:07;100686.72;;;-0.04;100.00
59419;BME280;45224;50.904;6.038;2023-03-03T08:25:38;100677.25;;;0.08;100.00
59419;BME280;45224;50.904;6.038;2023-03-03T08:27:08;100700.56;;;0.01;100.00
59419;BME280;45224;50.904;6.038;2023-03-03T08:28:39;100692.69;;;0.11;100.00
59419;BME280;45224;50.904;6.038;2023-03-03T08:30:10;100696.69;;;0.08;100.00
59419;BME280;45224;50.904;6.038;2023-03-03T08:31:41;100697.44;;;0.05;100.00
59419;BME280;45224;50.904;6.038;2023-03-03T08:33:12;100700.75;;;-0.11;100.00
59419;BME280;45224;50.904;6.038;2023-03-03T08:34:43;100694.84;;;-0.25;100.00